Time,TemperatureF,DewpointF,PressureIn,WindDirection,WindDirectionDegrees,WindSpeedMPH,WindSpeedGustMPH,Humidity,HourlyPrecipIn,Conditions,Clouds,dailyrainin,SoftwareType,DateUTC
2013-05-14 00:02:00,56.7,36.1,29.89,SSE,165,4.1,8.1,46,0.00,FEW,,0.00,WeatherDisplay:10.37,2013-05-14 05:02:00,
2013-05-14 00:07:00,56.9,35.8,29.89,South,177,4.3,11.5,45,0.00,FEW,,0.00,WeatherDisplay:10.37,2013-05-14 05:07:00,
2013-05-14 00:12:00,56.8,36.2,29.88,SSW,209,4.9,8.1,46,0.00,FEW,,0.00,WeatherDisplay:10.37,2013-05-14 05:12:00,
2013-05-14 00:17:00,56.8,36.2,29.88,WSW,243,5.5,10.4,46,0.00,FEW,,0.00,WeatherDisplay:10.37,2013-05-14 05:17:00,
2013-05-14 00:22:00,56.7,36.1,29.88,South,172,4.9,8.1,46,0.00,FEW,,0.00,WeatherDisplay:10.37,2013-05-14 05:22:00,
2013-05-14 00:27:00,56.6,36.0,29.88,WSW,237,7.0,11.5,46,0.00,FEW,,0.00,WeatherDisplay:10.37,2013-05-14 05:27:00,
2013-05-14 00:32:00,56.6,36.0,29.87,SW,228,4.0,8.1,46,0.00,FEW,,0.00,WeatherDisplay:10.37,2013-05-14 05:32:00,
2013-05-14 00:37:00,56.6,36.0,29.87,SSW,206,6.1,9.9,46,0.00,FEW,,0.00,WeatherDisplay:10.37,2013-05-14 05:37:00,
2013-05-14 00:42:00,56.7,36.1,29.87,SE,134,4.3,6.9,46,0.00,FEW,,0.00,WeatherDisplay:10.37,2013-05-14 05:42:00,
2013-05-14 00:47:00,56.8,36.2,29.86,South,171,3.2,6.9,46,0.00,FEW,,0.00,WeatherDisplay:10.37,2013-05-14 05:47:00,
2013-05-14 00:52:00,56.9,35.8,29.86,South,184,5.0,10.4,45,0.00,FEW,,0.00,WeatherDisplay:10.37,2013-05-14 05:52:00,
2013-05-14 00:57:00,57.1,35.9,29.86,South,170,5.6,8.2,45,0.00,FEW,,0.00,WeatherDisplay:10.37,2013-05-14 05:57:00,
2013-05-14 01:02:00,57.2,36.0,29.85,SSW,192,4.6,10.4,45,0.00,CLR,,0.00,WeatherDisplay:10.37,2013-05-14 06:02:00,
2013-05-14 01:07:00,57.1,36.5,29.85,SSW,213,3.1,5.8,46,0.00,CLR,,0.00,WeatherDisplay:10.37,2013-05-14 06:07:00,
2013-05-14 01:12:00,56.9,36.3,29.85,SSW,201,3.8,12.7,46,0.00,CLR,,0.00,WeatherDisplay:10.37,2013-05-14 06:12:00,
2013-05-14 01:17:00,56.9,36.3,29.85,SSW,208,3.1,5.8,46,0.00,CLR,,0.00,WeatherDisplay:10.37,2013-05-14 06:17:00,
2013-05-14 01:22:00,56.9,36.3,29.85,SSW,212,5.3,10.4,46,0.00,CLR,,0.00,WeatherDisplay:10.37,2013-05-14 06:22:00,
2013-05-14 01:27:00,56.9,36.9,29.84,South,178,6.7,10.5,47,0.00,CLR,,0.00,WeatherDisplay:10.37,2013-05-14 06:27:00,
2013-05-14 01:32:00,56.9,36.9,29.83,SSW,192,4.6,11.5,47,0.00,CLR,,0.00,WeatherDisplay:10.37,2013-05-14 06:32:00,
2013-05-14 01:37:00,56.8,37.3,29.83,South,189,5.8,11.5,48,0.00,CLR,,0.00,WeatherDisplay:10.37,2013-05-14 06:37:00,
2013-05-14 01:42:00,56.9,37.4,29.83,SW,220,6.4,10.4,48,0.00,CLR,,0.00,WeatherDisplay:10.37,2013-05-14 06:42:00,
2013-05-14 01:47:00,56.7,37.2,29.83,SSW,209,6.4,9.2,48,0.00,CLR,,0.00,WeatherDisplay:10.37,2013-05-14 06:47:00,
2013-05-14 01:52:00,56.8,37.8,29.83,West,259,5.8,8.1,49,0.00,CLR,,0.00,WeatherDisplay:10.37,2013-05-14 06:52:00,
2013-05-14 01:57:00,56.7,37.7,29.83,WSW,242,6.7,11.5,49,0.00,CLR,,0.00,WeatherDisplay:10.37,2013-05-14 06:57:00,
2013-05-14 02:02:00,56.7,38.3,29.82,South,180,5.8,9.2,50,0.00,CLR,,0.00,WeatherDisplay:10.37,2013-05-14 07:02:00,
2013-05-14 02:07:00,56.6,38.2,29.82,SSW,198,6.4,8.1,50,0.00,CLR,,0.00,WeatherDisplay:10.37,2013-05-14 07:07:00,
2013-05-14 02:12:00,56.7,38.3,29.82,SSW,195,6.9,11.5,50,0.00,CLR,,0.00,WeatherDisplay:10.37,2013-05-14 07:12:00,
2013-05-14 02:17:00,56.8,38.3,29.81,SW,225,6.9,10.4,50,0.00,CLR,,0.00,WeatherDisplay:10.37,2013-05-14 07:17:00,
2013-05-14 02:22:00,56.8,38.3,29.81,SSW,208,5.3,9.2,50,0.00,CLR,,0.00,WeatherDisplay:10.37,2013-05-14 07:22:00,
2013-05-14 02:27:00,56.8,38.3,29.81,West,263,6.2,11.5,50,0.00,CLR,,0.00,WeatherDisplay:10.37,2013-05-14 07:27:00,
2013-05-14 02:32:00,56.9,38.4,29.81,SW,235,4.5,8.1,50,0.00,CLR,,0.00,WeatherDisplay:10.37,2013-05-14 07:32:00,
2013-05-14 02:37:00,56.8,38.3,29.80,SW,226,10.1,16.1,50,0.00,CLR,,0.00,WeatherDisplay:10.37,2013-05-14 07:37:00,
2013-05-14 02:42:00,56.7,38.3,29.80,SW,229,7.0,9.2,50,0.00,CLR,,0.00,WeatherDisplay:10.37,2013-05-14 07:42:00,
2013-05-14 02:47:00,56.6,38.7,29.79,SW,225,4.5,12.7,51,0.00,CLR,,0.00,WeatherDisplay:10.37,2013-05-14 07:47:00,
2013-05-14 02:52:00,56.5,38.6,29.79,SW,215,6.4,11.5,51,0.00,CLR,,0.00,WeatherDisplay:10.37,2013-05-14 07:52:00,
2013-05-14 02:57:00,56.3,38.4,29.79,WSW,237,7.4,10.2,51,0.00,CLR,,0.00,WeatherDisplay:10.37,2013-05-14 07:57:00,
2013-05-14 03:02:00,56.4,38.5,29.79,SSW,202,7.6,10.4,51,0.00,SCT,,0.00,WeatherDisplay:10.37,2013-05-14 08:02:00,
2013-05-14 03:07:00,56.3,38.4,29.78,SSW,196,6.2,15.0,51,0.00,SCT,,0.00,WeatherDisplay:10.37,2013-05-14 08:07:00,
2013-05-14 03:12:00,56.3,38.4,29.78,SSW,204,8.3,11.5,51,0.00,SCT,,0.00,WeatherDisplay:10.37,2013-05-14 08:12:00,
2013-05-14 03:17:00,56.3,38.4,29.78,South,184,6.7,12.7,51,0.00,SCT,,0.00,WeatherDisplay:10.37,2013-05-14 08:17:00,
2013-05-14 03:22:00,56.2,38.3,29.78,South,189,8.0,15.0,51,0.00,SCT,,0.00,WeatherDisplay:10.37,2013-05-14 08:22:00,
2013-05-14 03:27:00,56.2,38.3,29.78,SSE,163,6.2,9.2,51,0.00,SCT,,0.00,WeatherDisplay:10.37,2013-05-14 08:27:00,
2013-05-14 03:32:00,56.2,38.3,29.77,WSW,237,4.2,8.8,51,0.00,SCT,,0.00,WeatherDisplay:10.37,2013-05-14 08:32:00,
2013-05-14 03:37:00,56.3,38.9,29.77,SSW,205,8.5,10.4,52,0.00,SCT,,0.00,WeatherDisplay:10.37,2013-05-14 08:37:00,
2013-05-14 03:42:00,56.3,38.9,29.77,South,170,7.1,11.5,52,0.00,SCT,,0.00,WeatherDisplay:10.37,2013-05-14 08:42:00,
2013-05-14 03:47:00,56.1,38.7,29.77,South,178,5.8,13.6,52,0.00,SCT,,0.00,WeatherDisplay:10.37,2013-05-14 08:47:00,
2013-05-14 03:52:00,56.1,38.7,29.77,SSW,206,9.1,16.1,52,0.00,SCT,,0.00,WeatherDisplay:10.37,2013-05-14 08:52:00,
2013-05-14 03:57:00,56.2,39.3,29.76,SSW,194,9.4,16.1,53,0.00,SCT,,0.00,WeatherDisplay:10.37,2013-05-14 08:57:00,
2013-05-14 04:02:00,56.2,39.3,29.76,SSW,211,5.9,12.9,53,0.00,CLR,,0.00,WeatherDisplay:10.37,2013-05-14 09:02:00,
2013-05-14 04:07:00,55.9,39.5,29.76,SW,219,7.1,11.9,54,0.00,CLR,,0.00,WeatherDisplay:10.37,2013-05-14 09:07:00,
2013-05-14 04:12:00,55.8,39.4,29.76,SW,219,6.9,11.5,54,0.00,CLR,,0.00,WeatherDisplay:10.37,2013-05-14 09:12:00,
2013-05-14 04:17:00,55.9,39.5,29.75,SSE,168,10.0,17.3,54,0.00,CLR,,0.00,WeatherDisplay:10.37,2013-05-14 09:17:00,
2013-05-14 04:22:00,55.9,40.0,29.75,South,188,8.7,16.1,55,0.00,CLR,,0.00,WeatherDisplay:10.37,2013-05-14 09:22:00,
2013-05-14 04:27:00,55.7,39.8,29.75,SSW,202,10.1,16.1,55,0.00,CLR,,0.00,WeatherDisplay:10.37,2013-05-14 09:27:00,
2013-05-14 04:32:00,55.6,40.1,29.75,SSE,168,9.3,15.0,56,0.00,CLR,,0.00,WeatherDisplay:10.37,2013-05-14 09:32:00,
2013-05-14 04:37:00,55.5,40.0,29.75,SSW,196,7.6,12.7,56,0.00,CLR,,0.00,WeatherDisplay:10.37,2013-05-14 09:37:00,
2013-05-14 04:42:00,55.3,40.3,29.75,SSW,208,7.9,11.5,57,0.00,CLR,,0.00,WeatherDisplay:10.37,2013-05-14 09:42:00,
2013-05-14 04:47:00,55.2,40.7,29.75,SSW,209,9.2,15.0,58,0.00,CLR,,0.00,WeatherDisplay:10.37,2013-05-14 09:47:00,
2013-05-14 04:52:00,55.1,40.6,29.75,NW,304,5.0,7.5,58,0.00,CLR,,0.00,WeatherDisplay:10.37,2013-05-14 09:52:00,
2013-05-14 04:57:00,54.8,40.7,29.75,WSW,246,5.5,9.8,59,0.00,CLR,,0.00,WeatherDisplay:10.37,2013-05-14 09:57:00,
2013-05-14 05:02:00,54.8,41.2,29.75,NNW,345,4.4,13.8,60,0.00,CLR,,0.00,WeatherDisplay:10.37,2013-05-14 10:02:00,
2013-05-14 05:07:00,54.7,41.1,29.75,SW,225,9.9,16.1,60,0.00,CLR,,0.00,WeatherDisplay:10.37,2013-05-14 10:07:00,
2013-05-14 05:12:00,54.5,41.3,29.74,SW,219,8.1,11.5,61,0.00,CLR,,0.00,WeatherDisplay:10.37,2013-05-14 10:12:00,
2013-05-14 05:17:00,54.7,41.5,29.74,WSW,252,10.8,17.4,61,0.00,CLR,,0.00,WeatherDisplay:10.37,2013-05-14 10:17:00,
2013-05-14 05:22:00,54.6,41.4,29.74,West,260,9.4,16.7,61,0.00,CLR,,0.00,WeatherDisplay:10.37,2013-05-14 10:22:00,
2013-05-14 05:27:00,54.8,41.6,29.74,SSW,201,4.8,8.1,61,0.00,CLR,,0.00,WeatherDisplay:10.37,2013-05-14 10:27:00,
2013-05-14 05:32:00,54.6,41.8,29.74,SW,222,8.2,13.8,62,0.00,CLR,,0.00,WeatherDisplay:10.37,2013-05-14 10:32:00,
2013-05-14 05:37:00,54.8,42.0,29.74,SW,222,8.2,11.5,62,0.00,CLR,,0.00,WeatherDisplay:10.37,2013-05-14 10:37:00,
2013-05-14 05:42:00,54.7,41.9,29.74,West,271,6.3,11.5,62,0.00,CLR,,0.00,WeatherDisplay:10.37,2013-05-14 10:42:00,
2013-05-14 05:47:00,54.8,42.4,29.74,South,170,7.4,13.8,63,0.00,CLR,,0.00,WeatherDisplay:10.37,2013-05-14 10:47:00,
2013-05-14 05:52:00,54.6,42.3,29.74,SSE,148,8.9,11.5,63,0.00,CLR,,0.00,WeatherDisplay:10.37,2013-05-14 10:52:00,
2013-05-14 05:57:00,54.4,42.5,29.74,SSW,208,6.0,9.2,64,0.00,CLR,,0.00,WeatherDisplay:10.37,2013-05-14 10:57:00,
2013-05-14 06:02:00,54.4,42.5,29.74,WSW,257,5.2,10.4,64,0.00,CLR,,0.00,WeatherDisplay:10.37,2013-05-14 11:02:00,
2013-05-14 06:07:00,54.5,43.0,29.74,SSE,148,5.7,11.5,65,0.00,CLR,,0.00,WeatherDisplay:10.37,2013-05-14 11:07:00,
2013-05-14 06:12:00,54.6,43.1,29.74,SW,235,5.9,10.4,65,0.00,CLR,,0.00,WeatherDisplay:10.37,2013-05-14 11:12:00,
2013-05-14 06:17:00,54.8,43.3,29.75,West,281,4.9,9.2,65,0.00,CLR,,0.00,WeatherDisplay:10.37,2013-05-14 11:17:00,
2013-05-14 06:22:00,54.8,43.3,29.74,SSW,211,6.8,12.7,65,0.00,CLR,,0.00,WeatherDisplay:10.37,2013-05-14 11:22:00,
2013-05-14 06:27:00,54.9,43.4,29.74,WSW,247,3.4,8.1,65,0.00,CLR,,0.00,WeatherDisplay:10.37,2013-05-14 11:27:00,
2013-05-14 06:32:00,55.0,43.8,29.74,SSW,213,5.8,6.9,66,0.00,CLR,,0.00,WeatherDisplay:10.37,2013-05-14 11:32:00,
2013-05-14 06:37:00,55.3,44.1,29.74,SW,229,6.3,11.7,66,0.00,CLR,,0.00,WeatherDisplay:10.37,2013-05-14 11:37:00,
2013-05-14 06:42:00,55.3,44.1,29.74,WSW,240,5.8,9.2,66,0.00,CLR,,0.00,WeatherDisplay:10.37,2013-05-14 11:42:00,
2013-05-14 06:47:00,55.6,44.4,29.74,SSW,198,6.1,10.3,66,0.00,CLR,,0.00,WeatherDisplay:10.37,2013-05-14 11:47:00,
2013-05-14 06:52:00,55.9,44.7,29.74,WSW,249,2.9,6.9,66,0.00,CLR,,0.00,WeatherDisplay:10.37,2013-05-14 11:52:00,
2013-05-14 06:57:00,56.0,44.8,29.74,SW,236,6.4,16.1,66,0.00,CLR,,0.00,WeatherDisplay:10.37,2013-05-14 11:57:00,
2013-05-14 07:02:00,56.4,45.2,29.74,NW,308,2.0,9.2,66,0.00,CLR,,0.00,WeatherDisplay:10.37,2013-05-14 12:02:00,
2013-05-14 07:07:00,56.5,45.3,29.74,SW,232,6.6,10.4,66,0.00,CLR,,0.00,WeatherDisplay:10.37,2013-05-14 12:07:00,
2013-05-14 07:12:00,56.9,45.7,29.74,WSW,244,4.2,8.1,66,0.00,CLR,,0.00,WeatherDisplay:10.37,2013-05-14 12:12:00,
2013-05-14 07:17:00,57.2,45.9,29.74,West,261,6.9,10.4,66,0.00,CLR,,0.00,WeatherDisplay:10.37,2013-05-14 12:17:00,
2013-05-14 07:22:00,57.7,46.4,29.74,SW,230,7.0,9.2,66,0.00,CLR,,0.00,WeatherDisplay:10.37,2013-05-14 12:22:00,
2013-05-14 07:27:00,57.9,46.2,29.74,WNW,301,7.5,12.7,65,0.00,CLR,,0.00,WeatherDisplay:10.37,2013-05-14 12:27:00,
2013-05-14 07:32:00,58.3,47.0,29.74,WSW,244,4.1,10.4,66,0.00,CLR,,0.00,WeatherDisplay:10.37,2013-05-14 12:32:00,
2013-05-14 07:37:00,58.8,47.1,29.74,SSW,209,4.7,8.1,65,0.00,CLR,,0.00,WeatherDisplay:10.37,2013-05-14 12:37:00,
2013-05-14 07:42:00,59.1,47.3,29.74,SW,215,7.1,9.2,65,0.00,CLR,,0.00,WeatherDisplay:10.37,2013-05-14 12:42:00,
2013-05-14 07:47:00,59.4,47.6,29.74,South,184,4.1,6.9,65,0.00,CLR,,0.00,WeatherDisplay:10.37,2013-05-14 12:47:00,
2013-05-14 07:52:00,59.8,47.6,29.74,SW,225,6.2,8.1,64,0.00,CLR,,0.00,WeatherDisplay:10.37,2013-05-14 12:52:00,
2013-05-14 07:57:00,60.1,47.9,29.74,WSW,247,4.5,6.9,64,0.00,CLR,,0.00,WeatherDisplay:10.37,2013-05-14 12:57:00,
2013-05-14 08:02:00,60.5,48.3,29.74,SW,226,0.9,7.4,64,0.00,CLR,,0.00,WeatherDisplay:10.37,2013-05-14 13:02:00,
2013-05-14 08:07:00,60.6,47.9,29.74,West,268,7.7,9.2,63,0.00,CLR,,0.00,WeatherDisplay:10.37,2013-05-14 13:07:00,
2013-05-14 08:12:00,61.2,48.9,29.74,NNW,336,5.0,8.1,64,0.00,CLR,,0.00,WeatherDisplay:10.37,2013-05-14 13:12:00,
2013-05-14 08:17:00,61.6,48.9,29.74,West,270,4.7,9.2,63,0.00,CLR,,0.00,WeatherDisplay:10.37,2013-05-14 13:17:00,
2013-05-14 08:22:00,61.7,48.5,29.74,South,178,7.5,16.1,62,0.00,CLR,,0.00,WeatherDisplay:10.37,2013-05-14 13:22:00,
2013-05-14 08:27:00,62.1,48.9,29.74,WSW,237,5.8,9.2,62,0.00,CLR,,0.00,WeatherDisplay:10.37,2013-05-14 13:27:00,
2013-05-14 08:32:00,62.3,49.5,29.74,SW,220,4.6,9.2,63,0.00,CLR,,0.00,WeatherDisplay:10.37,2013-05-14 13:32:00,
2013-05-14 08:37:00,62.6,49.8,29.73,SW,220,5.7,9.2,63,0.00,CLR,,0.00,WeatherDisplay:10.37,2013-05-14 13:37:00,
2013-05-14 08:42:00,62.9,48.8,29.73,SW,219,8.3,13.8,60,0.00,CLR,,0.00,WeatherDisplay:10.37,2013-05-14 13:42:00,
2013-05-14 08:47:00,63.2,49.5,29.73,NW,304,5.8,10.4,61,0.00,CLR,,0.00,WeatherDisplay:10.37,2013-05-14 13:47:00,
2013-05-14 08:52:00,64.0,50.3,29.73,WSW,256,4.9,9.2,61,0.00,CLR,,0.00,WeatherDisplay:10.37,2013-05-14 13:52:00,
2013-05-14 08:57:00,64.6,50.4,29.73,SW,232,6.7,9.2,60,0.00,CLR,,0.00,WeatherDisplay:10.37,2013-05-14 13:57:00,
2013-05-14 09:02:00,64.6,50.4,29.73,SW,229,4.6,10.6,60,0.00,CLR,,0.00,WeatherDisplay:10.37,2013-05-14 14:02:00,
2013-05-14 09:07:00,65.3,50.6,29.73,North,350,5.9,11.5,59,0.00,CLR,,0.00,WeatherDisplay:10.37,2013-05-14 14:07:00,
2013-05-14 09:12:00,65.9,50.7,29.73,SSW,198,3.4,8.1,58,0.00,CLR,,0.00,WeatherDisplay:10.37,2013-05-14 14:12:00,
2013-05-14 09:17:00,66.1,50.4,29.73,SW,225,4.9,12.7,57,0.00,CLR,,0.00,WeatherDisplay:10.37,2013-05-14 14:17:00,
2013-05-14 09:22:00,66.6,50.9,29.73,WNW,284,3.4,5.8,57,0.00,CLR,,0.00,WeatherDisplay:10.37,2013-05-14 14:22:00,
2013-05-14 09:27:00,67.2,51.0,29.72,SW,218,3.7,6.9,56,0.00,CLR,,0.00,WeatherDisplay:10.37,2013-05-14 14:27:00,
2013-05-14 09:32:00,68.0,51.2,29.73,SW,218,6.2,8.1,55,0.00,CLR,,0.00,WeatherDisplay:10.37,2013-05-14 14:32:00,
2013-05-14 09:37:00,68.6,51.3,29.72,West,276,4.5,8.1,54,0.00,CLR,,0.00,WeatherDisplay:10.37,2013-05-14 14:37:00,
2013-05-14 09:42:00,68.7,50.9,29.72,West,276,3.3,8.1,53,0.00,CLR,,0.00,WeatherDisplay:10.37,2013-05-14 14:42:00,
2013-05-14 09:47:00,69.2,51.3,29.73,SW,215,4.4,9.2,53,0.00,CLR,,0.00,WeatherDisplay:10.37,2013-05-14 14:47:00,
2013-05-14 09:52:00,69.7,51.3,29.72,WSW,244,6.4,11.5,52,0.00,CLR,,0.00,WeatherDisplay:10.37,2013-05-14 14:52:00,
2013-05-14 09:57:00,70.4,51.9,29.72,WSW,240,5.9,8.1,52,0.00,CLR,,0.00,WeatherDisplay:10.37,2013-05-14 14:57:00,
2013-05-14 10:02:00,71.3,52.2,29.73,SW,219,3.8,6.9,51,0.00,CLR,,0.00,WeatherDisplay:10.37,2013-05-14 15:02:00,
2013-05-14 10:07:00,71.4,51.2,29.73,West,260,3.9,6.9,49,0.00,CLR,,0.00,WeatherDisplay:10.37,2013-05-14 15:07:00,
2013-05-14 10:12:00,71.5,51.9,29.73,WSW,243,0.6,4.6,50,0.00,CLR,,0.00,WeatherDisplay:10.37,2013-05-14 15:12:00,
2013-05-14 10:17:00,72.3,52.1,29.73,SW,233,3.9,8.1,49,0.00,CLR,,0.00,WeatherDisplay:10.37,2013-05-14 15:17:00,
2013-05-14 10:22:00,72.8,52.0,29.73,South,187,1.9,5.8,48,0.00,CLR,,0.00,WeatherDisplay:10.37,2013-05-14 15:22:00,
2013-05-14 10:27:00,73.1,51.7,29.73,WNW,287,4.7,8.1,47,0.00,CLR,,0.00,WeatherDisplay:10.37,2013-05-14 15:27:00,
2013-05-14 10:32:00,73.3,51.8,29.73,SSW,211,5.5,11.5,47,0.00,CLR,,0.00,WeatherDisplay:10.37,2013-05-14 15:32:00,
2013-05-14 10:37:00,72.9,51.5,29.73,WNW,298,6.1,10.4,47,0.00,CLR,,0.00,WeatherDisplay:10.37,2013-05-14 15:37:00,
2013-05-14 10:42:00,73.2,51.8,29.74,WNW,298,5.8,8.1,47,0.00,CLR,,0.00,WeatherDisplay:10.37,2013-05-14 15:42:00,
2013-05-14 10:47:00,73.8,51.7,29.74,NW,314,6.5,11.5,46,0.00,CLR,,0.00,WeatherDisplay:10.37,2013-05-14 15:47:00,
2013-05-14 10:52:00,74.4,53.4,29.74,WNW,291,0.9,8.1,48,0.00,CLR,,0.00,WeatherDisplay:10.37,2013-05-14 15:52:00,
2013-05-14 10:57:00,75.1,53.5,29.75,South,187,6.7,9.6,47,0.00,CLR,,0.00,WeatherDisplay:10.37,2013-05-14 15:57:00,
2013-05-14 11:02:00,75.7,52.2,29.75,SW,233,3.6,5.8,44,0.00,CLR,,0.00,WeatherDisplay:10.37,2013-05-14 16:02:00,
2013-05-14 11:07:00,76.2,52.7,29.75,SSW,209,1.8,5.8,44,0.00,CLR,,0.00,WeatherDisplay:10.37,2013-05-14 16:07:00,
2013-05-14 11:12:00,76.9,53.3,29.75,SSW,202,3.3,8.1,44,0.00,CLR,,0.00,WeatherDisplay:10.37,2013-05-14 16:12:00,
2013-05-14 11:17:00,77.8,54.8,29.75,SSW,212,2.5,4.6,45,0.00,CLR,,0.00,WeatherDisplay:10.37,2013-05-14 16:17:00,
2013-05-14 11:22:00,78.2,52.6,29.75,WSW,252,3.2,5.8,41,0.00,CLR,,0.00,WeatherDisplay:10.37,2013-05-14 16:22:00,
2013-05-14 11:27:00,78.4,52.1,29.75,SSW,206,3.4,8.1,40,0.00,CLR,,0.00,WeatherDisplay:10.37,2013-05-14 16:27:00,
2013-05-14 11:32:00,78.4,50.7,29.75,WNW,292,5.5,8.1,38,0.00,CLR,,0.00,WeatherDisplay:10.37,2013-05-14 16:32:00,
2013-05-14 11:37:00,78.7,51.7,29.75,West,260,0.4,1.2,39,0.00,CLR,,0.00,WeatherDisplay:10.37,2013-05-14 16:37:00,
2013-05-14 11:42:00,79.7,47.2,29.75,WSW,254,3.7,8.1,32,0.00,CLR,,0.00,WeatherDisplay:10.37,2013-05-14 16:42:00,
2013-05-14 11:47:00,80.2,49.3,29.75,West,278,3.0,5.5,34,0.00,CLR,,0.00,WeatherDisplay:10.37,2013-05-14 16:47:00,
2013-05-14 11:52:00,80.1,46.7,29.75,NW,321,5.9,8.1,31,0.00,CLR,,0.00,WeatherDisplay:10.37,2013-05-14 16:52:00,
2013-05-14 11:57:00,80.5,47.9,29.75,WNW,297,1.4,5.2,32,0.00,CLR,,0.00,WeatherDisplay:10.37,2013-05-14 16:57:00,
2013-05-14 12:02:00,81.5,47.9,29.75,SW,223,3.7,6.7,31,0.00,CLR,,0.00,WeatherDisplay:10.37,2013-05-14 17:02:00,
2013-05-14 12:07:00,81.4,46.1,29.75,NW,319,3.9,8.1,29,0.00,CLR,,0.00,WeatherDisplay:10.37,2013-05-14 17:07:00,
2013-05-14 12:12:00,81.8,48.2,29.75,SW,228,0.0,0.0,31,0.00,CLR,,0.00,WeatherDisplay:10.37,2013-05-14 17:12:00,
2013-05-14 12:17:00,82.9,47.4,29.75,West,263,1.1,3.5,29,0.00,CLR,,0.00,WeatherDisplay:10.37,2013-05-14 17:17:00,
2013-05-14 12:22:00,83.4,46.9,29.75,WSW,252,3.8,6.9,28,0.00,CLR,,0.00,WeatherDisplay:10.37,2013-05-14 17:22:00,
2013-05-14 12:27:00,83.6,48.9,29.74,NW,305,0.0,1.2,30,0.00,CLR,,0.00,WeatherDisplay:10.37,2013-05-14 17:27:00,
2013-05-14 12:32:00,84.1,46.5,29.75,ESE,115,0.3,2.3,27,0.00,CLR,,0.00,WeatherDisplay:10.37,2013-05-14 17:32:00,
2013-05-14 12:37:00,84.2,44.6,29.74,SSE,168,1.7,4.6,25,0.00,CLR,,0.00,WeatherDisplay:10.37,2013-05-14 17:37:00,
2013-05-14 12:42:00,84.6,43.8,29.74,SW,236,0.6,2.3,24,0.00,CLR,,0.00,WeatherDisplay:10.37,2013-05-14 17:42:00,
2013-05-14 12:47:00,85.5,45.7,29.74,West,273,2.1,8.1,25,0.00,CLR,,0.00,WeatherDisplay:10.37,2013-05-14 17:47:00,
2013-05-14 12:52:00,86.1,44.0,29.74,South,182,5.5,8.1,23,0.00,CLR,,0.00,WeatherDisplay:10.37,2013-05-14 17:52:00,
2013-05-14 12:57:00,85.5,42.3,29.74,SW,219,4.2,8.1,22,0.00,CLR,,0.00,WeatherDisplay:10.37,2013-05-14 17:57:00,
2013-05-14 13:02:00,85.4,42.2,29.74,SW,233,0.2,2.3,22,0.00,CLR,,0.00,WeatherDisplay:10.37,2013-05-14 18:02:00,
2013-05-14 13:07:00,85.7,45.8,29.74,South,184,2.9,4.8,25,0.00,CLR,,0.00,WeatherDisplay:10.37,2013-05-14 18:07:00,
2013-05-14 13:12:00,85.7,42.5,29.74,West,260,2.0,2.3,22,0.00,CLR,,0.00,WeatherDisplay:10.37,2013-05-14 18:12:00,
2013-05-14 13:17:00,86.4,45.3,29.75,West,277,1.4,8.1,24,0.00,CLR,,0.00,WeatherDisplay:10.37,2013-05-14 18:17:00,
2013-05-14 13:22:00,87.2,46.0,29.75,SE,134,0.7,2.0,24,0.00,CLR,,0.00,WeatherDisplay:10.37,2013-05-14 18:22:00,
2013-05-14 13:27:00,87.5,41.5,29.74,West,268,1.6,5.8,20,0.00,CLR,,0.00,WeatherDisplay:10.37,2013-05-14 18:27:00,
2013-05-14 13:32:00,88.2,45.7,29.74,NNE,20,1.4,5.8,23,0.00,CLR,,0.00,WeatherDisplay:10.37,2013-05-14 18:32:00,
2013-05-14 13:37:00,88.4,43.5,29.74,SW,222,3.0,4.6,21,0.00,CLR,,0.00,WeatherDisplay:10.37,2013-05-14 18:37:00,
2013-05-14 13:42:00,88.8,43.8,29.74,SSW,202,0.0,0.0,21,0.00,CLR,,0.00,WeatherDisplay:10.37,2013-05-14 18:42:00,
2013-05-14 13:47:00,89.7,42.0,29.75,NW,307,0.2,2.1,19,0.00,CLR,,0.00,WeatherDisplay:10.37,2013-05-14 18:47:00,
2013-05-14 13:52:00,89.2,37.1,29.75,West,267,1.7,4.6,16,0.00,CLR,,0.00,WeatherDisplay:10.37,2013-05-14 18:52:00,
2013-05-14 13:57:00,89.3,35.6,29.74,NNW,335,4.4,8.1,15,0.00,CLR,,0.00,WeatherDisplay:10.37,2013-05-14 18:57:00,
2013-05-14 14:02:00,90.3,38.0,29.74,WNW,291,2.3,4.6,16,0.00,FEW,,0.00,WeatherDisplay:10.37,2013-05-14 19:02:00,
2013-05-14 14:07:00,90.3,38.0,29.74,NE,36,1.1,2.3,16,0.00,FEW,,0.00,WeatherDisplay:10.37,2013-05-14 19:07:00,
2013-05-14 14:12:00,90.8,35.0,29.74,NNW,338,0.2,2.3,14,0.00,FEW,,0.00,WeatherDisplay:10.37,2013-05-14 19:12:00,
2013-05-14 14:17:00,90.8,35.0,29.74,ESE,103,1.4,3.7,14,0.00,FEW,,0.00,WeatherDisplay:10.37,2013-05-14 19:17:00,
2013-05-14 14:22:00,90.7,38.3,29.74,NW,319,2.7,5.8,16,0.00,FEW,,0.00,WeatherDisplay:10.37,2013-05-14 19:22:00,
2013-05-14 14:27:00,90.1,37.9,29.74,NW,325,4.2,8.1,16,0.00,FEW,,0.00,WeatherDisplay:10.37,2013-05-14 19:27:00,
2013-05-14 14:32:00,90.2,34.6,29.74,NNE,20,2.9,9.2,14,0.00,FEW,,0.00,WeatherDisplay:10.37,2013-05-14 19:32:00,
2013-05-14 14:37:00,90.7,36.7,29.74,NNE,26,0.3,3.5,15,0.00,FEW,,0.00,WeatherDisplay:10.37,2013-05-14 19:37:00,
2013-05-14 14:42:00,90.6,36.6,29.73,SSE,153,0.0,1.2,15,0.00,FEW,,0.00,WeatherDisplay:10.37,2013-05-14 19:42:00,
2013-05-14 14:47:00,90.8,36.8,29.73,West,267,0.0,0.0,15,0.00,FEW,,0.00,WeatherDisplay:10.37,2013-05-14 19:47:00,
2013-05-14 14:52:00,89.9,36.1,29.73,NE,34,0.5,2.3,15,0.00,FEW,,0.00,WeatherDisplay:10.37,2013-05-14 19:52:00,
2013-05-14 14:57:00,88.7,38.3,29.72,NE,34,0.0,0.0,17,0.00,FEW,,0.00,WeatherDisplay:10.37,2013-05-14 19:57:00,
2013-05-14 15:02:00,88.5,36.6,29.72,NE,36,0.4,1.2,16,0.00,SCT,,0.00,WeatherDisplay:10.37,2013-05-14 20:02:00,
2013-05-14 15:07:00,88.6,38.2,29.72,ENE,68,0.2,1.2,17,0.00,SCT,,0.00,WeatherDisplay:10.37,2013-05-14 20:07:00,
2013-05-14 15:12:00,89.0,35.3,29.72,ENE,68,0.0,0.0,15,0.00,SCT,,0.00,WeatherDisplay:10.37,2013-05-14 20:12:00,
2013-05-14 15:17:00,89.7,37.5,29.71,ENE,68,0.0,0.0,16,0.00,SCT,,0.00,WeatherDisplay:10.37,2013-05-14 20:17:00,
2013-05-14 15:22:00,90.3,34.6,29.70,ESE,122,2.7,6.1,14,0.00,SCT,,0.00,WeatherDisplay:10.37,2013-05-14 20:22:00,
2013-05-14 15:27:00,90.9,36.8,29.69,SW,223,3.1,5.8,15,0.00,SCT,,0.00,WeatherDisplay:10.37,2013-05-14 20:27:00,
2013-05-14 15:32:00,90.8,33.2,29.69,SSE,165,4.2,5.8,13,0.00,SCT,,0.00,WeatherDisplay:10.37,2013-05-14 20:32:00,
2013-05-14 15:37:00,90.9,40.1,29.69,SW,219,3.9,6.9,17,0.00,SCT,,0.00,WeatherDisplay:10.37,2013-05-14 20:37:00,
2013-05-14 15:42:00,90.0,37.8,29.68,SSW,204,7.1,10.4,16,0.00,SCT,,0.00,WeatherDisplay:10.37,2013-05-14 20:42:00,
2013-05-14 15:47:00,89.9,36.1,29.68,SE,144,3.0,8.1,15,0.00,SCT,,0.00,WeatherDisplay:10.37,2013-05-14 20:47:00,
2013-05-14 15:52:00,89.6,37.5,29.67,SSE,151,1.9,6.9,16,0.00,SCT,,0.00,WeatherDisplay:10.37,2013-05-14 20:52:00,
2013-05-14 15:57:00,90.1,37.9,29.67,SSW,204,2.8,8.1,16,0.00,SCT,,0.00,WeatherDisplay:10.37,2013-05-14 20:57:00,
2013-05-14 16:02:00,90.1,36.2,29.67,South,178,4.1,9.2,15,0.00,SCT,,0.00,WeatherDisplay:10.37,2013-05-14 21:02:00,
2013-05-14 16:07:00,90.0,40.8,29.66,SSW,194,3.7,9.2,18,0.00,SCT,,0.00,WeatherDisplay:10.37,2013-05-14 21:07:00,
2013-05-14 16:12:00,89.6,35.8,29.66,SSW,208,4.9,9.2,15,0.00,SCT,,0.00,WeatherDisplay:10.37,2013-05-14 21:12:00,
2013-05-14 16:17:00,89.5,38.9,29.66,SW,226,7.7,13.7,17,0.00,SCT,,0.00,WeatherDisplay:10.37,2013-05-14 21:17:00,
2013-05-14 16:22:00,89.2,38.7,29.66,SSE,164,4.3,9.2,17,0.00,SCT,,0.00,WeatherDisplay:10.37,2013-05-14 21:22:00,
2013-05-14 16:27:00,89.1,40.1,29.65,South,184,3.8,6.9,18,0.00,SCT,,0.00,WeatherDisplay:10.37,2013-05-14 21:27:00,
2013-05-14 16:32:00,89.4,40.3,29.65,SSE,168,5.4,8.1,18,0.00,SCT,,0.00,WeatherDisplay:10.37,2013-05-14 21:32:00,
2013-05-14 16:37:00,89.4,41.7,29.64,SSW,209,4.7,12.7,19,0.00,SCT,,0.00,WeatherDisplay:10.37,2013-05-14 21:37:00,
2013-05-14 16:42:00,89.4,43.0,29.63,SSE,158,3.6,11.7,20,0.00,SCT,,0.00,WeatherDisplay:10.37,2013-05-14 21:42:00,
2013-05-14 16:47:00,89.0,41.4,29.63,West,264,9.7,16.1,19,0.00,SCT,,0.00,WeatherDisplay:10.37,2013-05-14 21:47:00,
2013-05-14 16:52:00,88.3,42.1,29.63,SW,216,9.7,15.0,20,0.00,SCT,,0.00,WeatherDisplay:10.37,2013-05-14 21:52:00,
2013-05-14 16:57:00,88.4,44.7,29.63,SSW,199,5.3,15.0,22,0.00,SCT,,0.00,WeatherDisplay:10.37,2013-05-14 21:57:00,
2013-05-14 17:02:00,88.2,40.7,29.62,SW,218,8.5,11.5,19,0.00,FEW,,0.00,WeatherDisplay:10.37,2013-05-14 22:02:00,
2013-05-14 17:07:00,88.5,42.3,29.62,West,268,7.6,15.0,20,0.00,FEW,,0.00,WeatherDisplay:10.37,2013-05-14 22:07:00,
2013-05-14 17:12:00,88.5,42.3,29.62,SSE,148,6.3,10.4,20,0.00,FEW,,0.00,WeatherDisplay:10.37,2013-05-14 22:12:00,
2013-05-14 17:17:00,88.4,39.5,29.61,WSW,253,7.6,14.0,18,0.00,FEW,,0.00,WeatherDisplay:10.37,2013-05-14 22:17:00,
2013-05-14 17:22:00,88.5,41.0,29.61,South,189,6.2,9.2,19,0.00,FEW,,0.00,WeatherDisplay:10.37,2013-05-14 22:22:00,
2013-05-14 17:27:00,88.5,41.0,29.61,SSW,192,4.5,11.5,19,0.00,FEW,,0.00,WeatherDisplay:10.37,2013-05-14 22:27:00,
2013-05-14 17:32:00,88.8,39.8,29.61,SSW,212,5.0,9.2,18,0.00,FEW,,0.00,WeatherDisplay:10.37,2013-05-14 22:32:00,
2013-05-14 17:37:00,88.5,38.1,29.61,SSW,194,7.7,15.0,17,0.00,FEW,,0.00,WeatherDisplay:10.37,2013-05-14 22:37:00,
2013-05-14 17:42:00,88.2,37.9,29.61,SSW,194,6.1,8.1,17,0.00,FEW,,0.00,WeatherDisplay:10.37,2013-05-14 22:42:00,
2013-05-14 17:47:00,87.8,37.6,29.60,SW,233,4.2,6.9,17,0.00,FEW,,0.00,WeatherDisplay:10.37,2013-05-14 22:47:00,
2013-05-14 17:52:00,87.2,37.1,29.60,SE,137,6.5,14.0,17,0.00,FEW,,0.00,WeatherDisplay:10.37,2013-05-14 22:52:00,
2013-05-14 17:57:00,87.0,36.9,29.60,SSW,201,7.1,16.1,17,0.00,FEW,,0.00,WeatherDisplay:10.37,2013-05-14 22:57:00,
2013-05-14 18:02:00,86.7,36.7,29.61,SW,232,9.6,12.7,17,0.00,FEW,,0.00,WeatherDisplay:10.37,2013-05-14 23:02:00,
2013-05-14 18:07:00,86.8,38.2,29.60,SSW,206,6.5,10.4,18,0.00,FEW,,0.00,WeatherDisplay:10.37,2013-05-14 23:07:00,
2013-05-14 18:12:00,86.7,36.7,29.59,West,271,8.5,11.5,17,0.00,FEW,,0.00,WeatherDisplay:10.37,2013-05-14 23:12:00,
2013-05-14 18:17:00,86.6,39.4,29.59,SSW,192,3.2,4.6,19,0.00,FEW,,0.00,WeatherDisplay:10.37,2013-05-14 23:17:00,
2013-05-14 18:22:00,86.5,39.3,29.59,SE,124,2.3,8.1,19,0.00,FEW,,0.00,WeatherDisplay:10.37,2013-05-14 23:22:00,
2013-05-14 18:27:00,86.2,37.7,29.60,SW,236,4.8,11.5,18,0.00,FEW,,0.00,WeatherDisplay:10.37,2013-05-14 23:27:00,
2013-05-14 18:32:00,86.0,37.5,29.61,SW,216,2.4,4.6,18,0.00,FEW,,0.00,WeatherDisplay:10.37,2013-05-14 23:32:00,
2013-05-14 18:37:00,85.6,35.8,29.61,WSW,243,7.1,11.0,17,0.00,FEW,,0.00,WeatherDisplay:10.37,2013-05-14 23:37:00,
2013-05-14 18:42:00,85.5,37.1,29.62,WSW,242,4.5,9.2,18,0.00,FEW,,0.00,WeatherDisplay:10.37,2013-05-14 23:42:00,
2013-05-14 18:47:00,85.4,37.1,29.65,WNW,292,2.8,4.6,18,0.00,FEW,,0.00,WeatherDisplay:10.37,2013-05-14 23:47:00,
2013-05-14 18:52:00,85.1,38.2,29.64,SSW,192,2.9,5.8,19,0.00,FEW,,0.00,WeatherDisplay:10.37,2013-05-14 23:52:00,
2013-05-14 18:57:00,85.0,39.4,29.63,South,191,3.6,4.6,20,0.00,FEW,,0.00,WeatherDisplay:10.37,2013-05-14 23:57:00,
2013-05-14 19:02:00,84.4,38.9,29.62,SSE,161,2.4,4.6,20,0.00,BKN,,0.00,WeatherDisplay:10.37,2013-05-15 00:02:00,
2013-05-14 19:07:00,84.1,38.7,29.62,South,182,2.2,3.5,20,0.00,BKN,,0.00,WeatherDisplay:10.37,2013-05-15 00:07:00,
2013-05-14 19:12:00,83.9,38.5,29.63,SW,219,1.9,5.1,20,0.00,BKN,,0.00,WeatherDisplay:10.37,2013-05-15 00:12:00,
2013-05-14 19:17:00,83.8,39.7,29.63,SSE,150,0.0,0.0,21,0.00,BKN,,0.00,WeatherDisplay:10.37,2013-05-15 00:17:00,
2013-05-14 19:22:00,83.7,39.6,29.63,SSE,150,0.0,0.0,21,0.00,BKN,,0.00,WeatherDisplay:10.37,2013-05-15 00:22:00,
2013-05-14 19:27:00,83.5,39.4,29.64,SSE,150,0.0,0.0,21,0.00,BKN,,0.00,WeatherDisplay:10.37,2013-05-15 00:27:00,
2013-05-14 19:32:00,83.5,38.2,29.65,SSE,150,0.0,0.0,20,0.00,BKN,,0.00,WeatherDisplay:10.37,2013-05-15 00:32:00,
2013-05-14 19:37:00,83.4,40.6,29.65,SSE,150,0.0,0.0,22,0.00,BKN,,0.00,WeatherDisplay:10.37,2013-05-15 00:37:00,
2013-05-14 19:42:00,82.6,44.2,29.67,NNW,333,1.5,2.3,26,0.00,BKN,,0.00,WeatherDisplay:10.37,2013-05-15 00:42:00,
2013-05-14 19:47:00,81.8,47.3,29.67,NNW,333,0.0,0.0,30,0.00,BKN,,0.00,WeatherDisplay:10.37,2013-05-15 00:47:00,
2013-05-14 19:52:00,80.8,54.2,29.67,NNW,333,0.0,0.0,40,0.00,BKN,,0.00,WeatherDisplay:10.37,2013-05-15 00:52:00,
2013-05-14 19:57:00,79.3,56.1,29.67,NNW,333,0.0,0.0,45,0.00,BKN,,0.00,WeatherDisplay:10.37,2013-05-15 00:57:00,
2013-05-14 20:02:00,77.8,52.9,29.65,NNW,333,0.0,0.0,42,0.00,BKN,,0.00,WeatherDisplay:10.37,2013-05-15 01:02:00,
2013-05-14 20:07:00,76.9,53.3,29.63,NNW,333,0.0,0.0,44,0.00,BKN,,0.00,WeatherDisplay:10.37,2013-05-15 01:07:00,
2013-05-14 20:12:00,75.8,55.3,29.61,SE,146,6.2,9.2,49,0.00,BKN,,0.00,WeatherDisplay:10.37,2013-05-15 01:12:00,
2013-05-14 20:17:00,75.0,54.0,29.60,SSE,168,3.4,5.8,48,0.00,BKN,,0.00,WeatherDisplay:10.37,2013-05-15 01:17:00,
2013-05-14 20:22:00,74.1,53.7,29.59,SSE,154,4.6,8.1,49,0.00,BKN,,0.00,WeatherDisplay:10.37,2013-05-15 01:22:00,
2013-05-14 20:27:00,74.8,49.5,29.59,South,174,5.1,9.2,41,0.00,BKN,,0.00,WeatherDisplay:10.37,2013-05-15 01:27:00,
2013-05-14 20:32:00,76.2,49.4,29.59,SSW,212,5.0,7.6,39,0.00,BKN,,0.00,WeatherDisplay:10.37,2013-05-15 01:32:00,
2013-05-14 20:37:00,77.8,47.2,29.60,SSW,206,5.3,9.2,34,0.00,BKN,,0.00,WeatherDisplay:10.37,2013-05-15 01:37:00,
2013-05-14 20:42:00,79.2,46.8,29.59,SSW,205,4.4,5.8,32,0.00,BKN,,0.00,WeatherDisplay:10.37,2013-05-15 01:42:00,
2013-05-14 20:47:00,79.8,44.7,29.60,SSE,151,7.2,11.5,29,0.00,BKN,,0.00,WeatherDisplay:10.37,2013-05-15 01:47:00,
2013-05-14 20:52:00,80.1,45.9,29.61,SW,232,2.9,8.1,30,0.00,BKN,,0.00,WeatherDisplay:10.37,2013-05-15 01:52:00,
2013-05-14 20:57:00,80.3,46.9,29.61,SSW,206,8.6,13.8,31,0.00,BKN,,0.00,WeatherDisplay:10.37,2013-05-15 01:57:00,
2013-05-14 21:02:00,80.4,47.8,29.60,South,181,4.9,8.1,32,0.00,BKN,,0.00,WeatherDisplay:10.37,2013-05-15 02:02:00,
2013-05-14 21:07:00,80.7,48.1,29.59,SSW,205,7.2,15.0,32,0.00,BKN,,0.00,WeatherDisplay:10.37,2013-05-15 02:07:00,
2013-05-14 21:12:00,80.8,48.2,29.59,SW,215,5.3,8.1,32,0.00,BKN,,0.00,WeatherDisplay:10.37,2013-05-15 02:12:00,
2013-05-14 21:17:00,80.9,48.3,29.58,SSE,157,7.6,11.5,32,0.00,BKN,,0.00,WeatherDisplay:10.37,2013-05-15 02:17:00,
2013-05-14 21:22:00,80.8,49.0,29.58,SSW,213,6.6,10.4,33,0.00,BKN,,0.00,WeatherDisplay:10.37,2013-05-15 02:22:00,
2013-05-14 21:27:00,80.5,49.5,29.58,South,178,4.7,6.9,34,0.00,BKN,,0.00,WeatherDisplay:10.37,2013-05-15 02:27:00,
2013-05-14 21:32:00,80.3,50.9,29.58,ESE,115,3.2,5.8,36,0.00,BKN,,0.00,WeatherDisplay:10.37,2013-05-15 02:32:00,
2013-05-14 21:37:00,80.1,50.7,29.58,South,178,3.2,6.9,36,0.00,BKN,,0.00,WeatherDisplay:10.37,2013-05-15 02:37:00,
2013-05-14 21:42:00,79.8,51.2,29.58,SW,225,5.5,9.8,37,0.00,BKN,,0.00,WeatherDisplay:10.37,2013-05-15 02:42:00,
2013-05-14 21:47:00,79.7,52.5,29.58,South,172,7.2,13.8,39,0.00,BKN,,0.00,WeatherDisplay:10.37,2013-05-15 02:47:00,
2013-05-14 21:52:00,79.9,54.1,29.59,SW,218,6.0,10.4,41,0.00,BKN,,0.00,WeatherDisplay:10.37,2013-05-15 02:52:00,
2013-05-14 21:57:00,79.5,55.0,29.59,SSW,213,9.0,10.7,43,0.00,BKN,,0.00,WeatherDisplay:10.37,2013-05-15 02:57:00,
2013-05-14 22:02:00,79.4,55.6,29.59,SSW,202,8.4,15.5,44,0.00,CLR,,0.00,WeatherDisplay:10.37,2013-05-15 03:02:00,
2013-05-14 22:07:00,79.3,56.1,29.59,SW,230,5.8,16.1,45,0.00,CLR,,0.00,WeatherDisplay:10.37,2013-05-15 03:07:00,
2013-05-14 22:12:00,79.4,56.8,29.58,South,184,10.2,13.1,46,0.00,CLR,,0.00,WeatherDisplay:10.37,2013-05-15 03:12:00,
2013-05-14 22:17:00,79.4,56.8,29.58,SSW,202,8.5,16.1,46,0.00,CLR,,0.00,WeatherDisplay:10.37,2013-05-15 03:17:00,
2013-05-14 22:22:00,79.3,56.7,29.58,SSW,209,5.7,13.8,46,0.00,CLR,,0.00,WeatherDisplay:10.37,2013-05-15 03:22:00,
2013-05-14 22:27:00,79.2,57.2,29.59,SSW,209,4.5,11.5,47,0.00,CLR,,0.00,WeatherDisplay:10.37,2013-05-15 03:27:00,
2013-05-14 22:32:00,79.0,57.0,29.58,WSW,237,8.3,11.5,47,0.00,CLR,,0.00,WeatherDisplay:10.37,2013-05-15 03:32:00,
2013-05-14 22:37:00,79.0,57.0,29.58,WSW,242,8.4,11.5,47,0.00,CLR,,0.00,WeatherDisplay:10.37,2013-05-15 03:37:00,
2013-05-14 22:42:00,78.8,57.4,29.58,SW,229,7.1,15.0,48,0.00,CLR,,0.00,WeatherDisplay:10.37,2013-05-15 03:42:00,
2013-05-14 22:47:00,78.9,57.5,29.58,West,276,9.1,13.8,48,0.00,CLR,,0.00,WeatherDisplay:10.37,2013-05-15 03:47:00,
2013-05-14 22:52:00,78.7,57.4,29.58,West,274,7.3,15.0,48,0.00,CLR,,0.00,WeatherDisplay:10.37,2013-05-15 03:52:00,
2013-05-14 22:57:00,78.4,57.1,29.58,West,259,6.2,8.1,48,0.00,CLR,,0.00,WeatherDisplay:10.37,2013-05-15 03:57:00,
2013-05-14 23:01:00,78.4,57.1,29.58,SW,215,8.6,13.8,48,0.00,CLR,,0.00,WeatherDisplay:10.37,2013-05-15 04:01:00,
2013-05-14 23:02:00,78.4,57.1,29.58,SSW,212,8.7,12.7,48,0.00,CLR,,0.00,WeatherDisplay:10.37,2013-05-15 04:02:00,
2013-05-14 23:07:00,78.2,56.9,29.58,WSW,249,7.9,11.5,48,0.00,CLR,,0.00,WeatherDisplay:10.37,2013-05-15 04:07:00,
2013-05-14 23:12:00,78.2,56.9,29.58,SW,232,3.8,6.9,48,0.00,CLR,,0.00,WeatherDisplay:10.37,2013-05-15 04:12:00,
2013-05-14 23:17:00,78.2,56.9,29.58,South,188,6.2,15.0,48,0.00,CLR,,0.00,WeatherDisplay:10.37,2013-05-15 04:17:00,
2013-05-14 23:22:00,77.9,56.6,29.58,SE,124,7.9,11.5,48,0.00,CLR,,0.00,WeatherDisplay:10.37,2013-05-15 04:22:00,
2013-05-14 23:27:00,78.0,56.7,29.58,SW,236,5.7,9.2,48,0.00,CLR,,0.00,WeatherDisplay:10.37,2013-05-15 04:27:00,
2013-05-14 23:32:00,77.8,57.1,29.58,SSW,212,5.3,8.1,49,0.00,CLR,,0.00,WeatherDisplay:10.37,2013-05-15 04:32:00,
2013-05-14 23:37:00,77.5,56.8,29.58,SSW,194,5.7,11.5,49,0.00,CLR,,0.00,WeatherDisplay:10.37,2013-05-15 04:37:00,
2013-05-14 23:42:00,77.3,56.6,29.58,WSW,239,5.9,9.2,49,0.00,CLR,,0.00,WeatherDisplay:10.37,2013-05-15 04:42:00,
2013-05-14 23:47:00,77.2,56.6,29.58,ESE,123,4.1,6.9,49,0.00,CLR,,0.00,WeatherDisplay:10.37,2013-05-15 04:47:00,
2013-05-14 23:52:00,77.1,57.0,29.58,SSW,209,9.2,15.0,50,0.00,CLR,,0.00,WeatherDisplay:10.37,2013-05-15 04:52:00,
2013-05-14 23:57:00,77.0,56.9,29.58,SW,220,7.0,12.7,50,0.00,CLR,,0.00,WeatherDisplay:10.37,2013-05-15 04:57:00,